»·PEaware :: N228MB KSBP-KSMX

N228MB :: KSBP-KSMX

FLIGHT INFORMATION

Flight Status: Arrived
Operator: Privately registered:
United States
More flights under this callsign
Pilot: Stian H. (5166)
Aircraft: CESSNA 172 SKYHAWK
(C172)
More flights by this aircraft type
Origin: KSBP San Luis Co Regl
United States
Destination: KSMX Santa Maria Pub/Capt Hancock
United States
More flights between these airports :: More routes between these airports
Route: VFR
File this flight plan on PilotEdge
Remarks: VFR - Cat-4-rating
Altitude:
(Current/Filed)
3,500ft
Speed:
(Current/Filed)
90kts
Departed: 04-Jan-18 12:26 PM
Arrived: 04-Jan-18 12:43 PM
Distance/Time
Traveled:
22nm/0:17
Distance/Time
To Go:
Arrived

Flight Plot

Page will automatically refresh every two minutes.


Map Options




Map Legend


Flown Route
Filed Route
Departure Airport
Arrival Airport
Navaid (VOR, NDB)
Fix

Horizontal Profiles

Position Reports

Time Latitude Longitude Heading Altitude Ground
Speed
04-Jan-18 11:59 35.234530 -120.632881 304 214ft 0kts
04-Jan-18 12:00 35.234531 -120.632881 304 214ft 0kts
04-Jan-18 12:01 35.234531 -120.632881 304 214ft 0kts
04-Jan-18 12:02 35.234531 -120.632881 304 214ft 0kts
04-Jan-18 12:03 35.234531 -120.632881 304 214ft 0kts
04-Jan-18 12:04 35.234531 -120.632881 304 214ft 0kts
04-Jan-18 12:05 35.234531 -120.632881 304 214ft 0kts
04-Jan-18 12:06 35.234531 -120.632881 304 214ft 0kts
04-Jan-18 12:07 35.234531 -120.632881 304 214ft 0kts
04-Jan-18 12:08 35.234531 -120.632881 304 214ft 0kts
04-Jan-18 12:09 35.234531 -120.632881 304 214ft 0kts
04-Jan-18 12:10 35.234531 -120.632881 304 214ft 0kts
04-Jan-18 12:11 35.234531 -120.632881 304 214ft 0kts
04-Jan-18 12:12 35.234531 -120.632881 304 214ft 0kts
04-Jan-18 12:13 35.234531 -120.632881 304 214ft 0kts
04-Jan-18 12:14 35.234531 -120.632881 304 214ft 0kts
04-Jan-18 12:15 35.234531 -120.632881 304 214ft 0kts
04-Jan-18 12:16 35.234531 -120.632881 304 214ft 0kts
04-Jan-18 12:17 35.234531 -120.632881 304 214ft 0kts
04-Jan-18 12:18 35.234531 -120.632881 304 214ft 0kts
04-Jan-18 12:19 35.234531 -120.632881 304 214ft 0kts
04-Jan-18 12:20 35.234531 -120.632881 304 214ft 0kts
04-Jan-18 12:21 35.234531 -120.632881 304 214ft 0kts
04-Jan-18 12:22 35.234531 -120.632881 304 214ft 0kts
04-Jan-18 12:23 35.234531 -120.632881 304 214ft 0kts
04-Jan-18 12:24 35.234531 -120.632881 304 214ft 0kts
04-Jan-18 12:25 35.234531 -120.632881 304 214ft 0kts
04-Jan-18 12:26 35.234531 -120.632881 304 214ft 0kts
04-Jan-18 12:27 35.233949 -120.633117 124 212ft 14kts
04-Jan-18 12:28 35.233229 -120.632386 209 212ft 0kts
04-Jan-18 12:29 35.233229 -120.632386 209 212ft 0kts
04-Jan-18 12:30 35.233229 -120.632386 209 212ft 0kts
04-Jan-18 12:31 35.233206 -120.632402 209 212ft 3kts
04-Jan-18 12:32 35.239269 -120.644514 303 385ft 84kts
04-Jan-18 12:33 35.229816 -120.654205 123 1125ft 97kts
04-Jan-18 12:34 35.202542 -120.646725 211 1227ft 104kts
04-Jan-18 12:35 35.177789 -120.656357 163 1377ft 109kts
04-Jan-18 12:36 35.150624 -120.640021 149 1537ft 108kts
04-Jan-18 12:37 35.128052 -120.623518 148 1947ft 90kts
04-Jan-18 12:38 35.103905 -120.605921 148 2475ft 109kts
04-Jan-18 12:39 35.078117 -120.587052 148 2646ft 105kts
04-Jan-18 12:40 35.053482 -120.569003 148 2640ft 101kts
04-Jan-18 12:41 35.028055 -120.550398 148 2405ft 114kts
04-Jan-18 12:42 35.001041 -120.530604 147 2133ft 109kts
04-Jan-18 12:43 34.976399 -120.510779 145 1809ft 104kts
04-Jan-18 12:44 34.952086 -120.491686 147 1534ft 103kts
04-Jan-18 12:45 34.927434 -120.472790 148 1225ft 107kts
04-Jan-18 12:46 34.904531 -120.450596 138 1052ft 101kts
04-Jan-18 12:47 34.883827 -120.431847 219 863ft 90kts
04-Jan-18 12:48 34.898402 -120.452448 315 265ft 65kts
04-Jan-18 12:49 34.903264 -120.456493 44 265ft 0kts
04-Jan-18 12:50 34.903264 -120.456493 44 265ft 0kts
04-Jan-18 12:51 34.903264 -120.456493 44 265ft 0kts
04-Jan-18 12:52 34.903264 -120.456493 44 265ft 0kts
04-Jan-18 12:53 34.903264 -120.456493 44 265ft 0kts
04-Jan-18 12:54 34.904617 -120.455020 48 265ft 10kts
04-Jan-18 12:55 34.904477 -120.454153 225 265ft 0kts
04-Jan-18 12:56 34.904477 -120.454153 225 265ft 0kts
04-Jan-18 12:57 34.904477 -120.454153 225 265ft 0kts
04-Jan-18 12:58 34.904477 -120.454153 225 265ft 0kts
04-Jan-18 12:59 34.904477 -120.454153 225 265ft 0kts
04-Jan-18 13:00 34.904477 -120.454153 225 265ft 0kts
04-Jan-18 13:01 34.904477 -120.454153 225 265ft 0kts
04-Jan-18 13:02 34.904477 -120.454153 225 265ft 0kts
04-Jan-18 13:03 34.904477 -120.454152 224 265ft 0kts

Navigation Log

Ident Type
1. KSBP Airport
2. KSMX Airport